Time;durP1;ratioP1;P1;durP2;ratioP2;P2;SDS_P1;SDS_P2;PMS_P1;PMS_P2;Temp;Humidity;BMP_temperature;BMP_pressure;BME280_temperature;BME280_humidity;BME280_pressure;Samples;Min_cycle;Max_cycle;Signal;HPM_P1;HPM_P2
2022/08/21 00:02:22;;;;;;;4.77;4.27;;;15.50;99.90;;;;;;5063749;28;20193;-79
2022/08/21 00:04:50;;;;;;;3.13;2.93;;;15.40;99.90;;;;;;5061275;28;20225;-79
2022/08/21 00:07:17;;;;;;;4.10;2.90;;;15.50;99.90;;;;;;5059348;28;20280;-79
2022/08/21 00:09:44;;;;;;;3.90;3.10;;;15.50;99.90;;;;;;5056520;28;20218;-79
2022/08/21 00:12:12;;;;;;;3.60;3.30;;;15.40;99.90;;;;;;5051118;28;20206;-79
2022/08/21 00:14:39;;;;;;;3.73;3.40;;;15.40;99.90;;;;;;5061160;28;20283;-79
2022/08/21 00:17:07;;;;;;;4.43;3.50;;;15.30;99.90;;;;;;5055792;28;20207;-79
2022/08/21 00:19:34;;;;;;;4.90;3.57;;;15.30;99.90;;;;;;5056493;28;20196;-78
2022/08/21 00:22:01;;;;;;;3.93;3.53;;;15.30;99.90;;;;;;5062029;28;20195;-79
2022/08/21 00:24:28;;;;;;;4.47;3.40;;;15.20;99.90;;;;;;5057261;28;20771;-80
2022/08/21 00:26:55;;;;;;;3.80;3.50;;;15.20;99.90;;;;;;5054813;28;20779;-79
2022/08/21 00:29:21;;;;;;;5.50;5.10;;;15.20;99.90;;;;;;5058553;28;20232;-78
2022/08/21 00:31:48;;;;;;;7.80;7.30;;;15.20;99.90;;;;;;5061184;28;20693;-79
2022/08/21 00:34:16;;;;;;;7.33;6.73;;;15.20;99.90;;;;;;5054816;28;20196;-78
2022/08/21 00:36:43;;;;;;;7.23;6.73;;;15.10;99.90;;;;;;5061101;28;20200;-79
2022/08/21 00:39:10;;;;;;;7.93;7.43;;;15.10;99.90;;;;;;5064085;28;20219;-79
2022/08/21 00:41:38;;;;;;;7.60;7.10;;;15.10;99.90;;;;;;5056406;28;20228;-79
2022/08/21 00:44:07;;;;;;;8.43;7.93;;;15.10;99.90;;;;;;5065651;28;20197;-79
2022/08/21 00:46:34;;;;;;;8.10;7.50;;;15.10;99.90;;;;;;5060295;28;20201;-79
2022/08/21 00:49:01;;;;;;;8.30;7.70;;;15.10;99.90;;;;;;5061013;28;20202;-79
2022/08/21 00:51:37;;;;;;;8.47;7.87;;;15.10;99.90;;;;;;5047198;28;20630;-79
2022/08/21 00:54:04;;;;;;;8.70;8.10;;;15.00;99.90;;;;;;5062740;28;20208;-79
2022/08/21 00:56:31;;;;;;;8.70;8.17;;;15.00;99.90;;;;;;5059404;28;20296;-79
2022/08/21 00:59:00;;;;;;;8.33;7.73;;;15.00;99.90;;;;;;5059638;28;20198;-79
2022/08/21 01:01:27;;;;;;;8.10;7.60;;;15.00;99.90;;;;;;5063161;28;20226;-79
2022/08/21 01:03:54;;;;;;;8.83;8.00;;;15.00;99.90;;;;;;5063498;28;20196;-79
2022/08/21 01:06:21;;;;;;;7.67;7.17;;;15.00;99.90;;;;;;5056734;28;20228;-78
2022/08/21 01:08:50;;;;;;;8.67;8.07;;;15.00;99.90;;;;;;5057655;28;20243;-79
2022/08/21 01:11:18;;;;;;;9.03;8.33;;;15.00;99.90;;;;;;5050961;28;20700;-79
2022/08/21 01:13:46;;;;;;;9.27;8.57;;;15.00;99.90;;;;;;5061426;28;20202;-79
2022/08/21 01:16:16;;;;;;;9.47;8.77;;;14.90;99.90;;;;;;5057943;28;20242;-79
2022/08/21 01:18:44;;;;;;;8.90;8.30;;;14.90;99.90;;;;;;5057729;28;20669;-79
2022/08/21 01:21:14;;;;;;;9.50;8.80;;;14.80;99.90;;;;;;5052782;28;20220;-79
2022/08/21 01:23:45;;;;;;;8.97;8.27;;;14.70;99.90;;;;;;5057686;28;20833;-79
2022/08/21 01:26:13;;;;;;;7.30;6.80;;;14.70;99.90;;;;;;5055176;28;20282;-80
2022/08/21 01:28:45;;;;;;;7.60;7.00;;;14.60;99.90;;;;;;5053670;28;20609;-79
2022/08/21 01:31:14;;;;;;;7.13;6.50;;;14.60;99.90;;;;;;5053778;28;20223;-79
2022/08/21 01:33:41;;;;;;;8.67;7.17;;;14.50;99.90;;;;;;5059515;28;20269;-79
2022/08/21 01:36:08;;;;;;;7.27;6.67;;;14.50;99.90;;;;;;5056638;28;20222;-78
2022/08/21 01:38:36;;;;;;;7.10;6.60;;;14.50;99.90;;;;;;5054177;28;20196;-79
2022/08/21 01:41:03;;;;;;;6.70;6.20;;;14.40;99.90;;;;;;5058865;28;20241;-79
2022/08/21 01:43:30;;;;;;;6.73;6.13;;;14.40;99.90;;;;;;5057016;28;20218;-78
2022/08/21 01:45:56;;;;;;;5.37;4.97;;;14.40;99.90;;;;;;5053164;28;20614;-79
2022/08/21 01:48:23;;;;;;;5.17;4.00;;;14.40;99.90;;;;;;5056706;28;20220;-79
2022/08/21 01:50:50;;;;;;;5.10;4.60;;;14.30;99.90;;;;;;5059849;28;20244;-79
2022/08/21 01:53:17;;;;;;;4.63;4.20;;;14.30;99.90;;;;;;5052737;28;20732;-79
2022/08/21 01:55:45;;;;;;;6.30;5.70;;;14.30;99.90;;;;;;5058878;28;20622;-79
2022/08/21 01:58:12;;;;;;;7.77;6.50;;;14.30;99.90;;;;;;5051467;28;20266;-79
2022/08/21 02:00:39;;;;;;;6.00;5.50;;;14.30;99.90;;;;;;5055654;28;20211;-78
2022/08/21 02:03:07;;;;;;;5.57;5.17;;;14.20;99.90;;;;;;5063640;28;20248;-79
2022/08/21 02:05:34;;;;;;;5.53;5.10;;;14.20;99.90;;;;;;5061968;28;20285;-79
2022/08/21 02:08:01;;;;;;;5.50;5.10;;;14.20;99.90;;;;;;5057271;28;20676;-79
2022/08/21 02:10:32;;;;;;;5.97;4.80;;;14.20;99.90;;;;;;5054240;28;20779;-80
2022/08/21 02:13:01;;;;;;;4.60;4.20;;;14.10;99.90;;;;;;5050802;28;20199;-79
2022/08/21 02:15:28;;;;;;;4.37;3.97;;;14.10;99.90;;;;;;5061075;28;20223;-79
2022/08/21 02:17:59;;;;;;;4.20;3.80;;;14.10;99.90;;;;;;5057127;28;20254;-78
2022/08/21 02:20:28;;;;;;;4.90;3.80;;;14.10;99.90;;;;;;5060975;28;20203;-78
2022/08/21 02:22:55;;;;;;;4.97;4.00;;;14.00;99.90;;;;;;5061787;28;20200;-78
2022/08/21 02:25:24;;;;;;;4.63;4.23;;;14.10;99.90;;;;;;5055116;28;20675;-79
2022/08/21 02:27:52;;;;;;;4.20;3.80;;;14.00;99.90;;;;;;5059760;28;20579;-79
2022/08/21 02:30:23;;;;;;;5.00;4.43;;;14.00;99.90;;;;;;5058887;28;20284;-79
2022/08/21 02:32:50;;;;;;;4.23;3.90;;;14.00;99.90;;;;;;5059615;28;20202;-79
2022/08/21 02:35:18;;;;;;;4.57;3.70;;;14.00;99.90;;;;;;5051944;28;20250;-79
2022/08/21 02:37:49;;;;;;;5.23;4.00;;;14.00;99.90;;;;;;5060535;28;20199;-79
2022/08/21 02:40:18;;;;;;;4.23;3.83;;;13.90;99.90;;;;;;5052870;28;20195;-79
2022/08/21 02:42:45;;;;;;;4.63;4.23;;;14.00;99.90;;;;;;5053200;28;20209;-79
2022/08/21 02:45:13;;;;;;;4.57;4.17;;;14.00;99.90;;;;;;5052157;28;20226;-79
2022/08/21 02:47:47;;;;;;;4.57;4.17;;;13.90;99.90;;;;;;5060792;28;20244;-79
2022/08/21 02:50:17;;;;;;;4.63;4.10;;;13.90;99.90;;;;;;5045989;28;20272;-79
2022/08/21 02:52:45;;;;;;;4.50;4.20;;;13.90;99.90;;;;;;5051903;28;20231;-79
2022/08/21 02:55:11;;;;;;;6.23;4.10;;;13.90;99.90;;;;;;5050259;28;20219;-79
2022/08/21 02:57:38;;;;;;;4.90;4.20;;;13.80;99.90;;;;;;5052853;28;20722;-78
2022/08/21 03:00:07;;;;;;;4.30;3.90;;;13.80;99.90;;;;;;5062677;28;20205;-79
2022/08/21 03:02:34;;;;;;;4.50;3.90;;;13.80;99.90;;;;;;5056161;28;20210;-79
2022/08/21 03:05:02;;;;;;;3.87;3.57;;;13.80;99.90;;;;;;5058382;28;20218;-78
2022/08/21 03:07:30;;;;;;;5.93;4.27;;;13.80;99.90;;;;;;5054597;28;20199;-79
2022/08/21 03:09:56;;;;;;;3.80;3.50;;;13.80;99.90;;;;;;5048419;28;20207;-79
2022/08/21 03:12:23;;;;;;;5.40;3.93;;;13.80;99.90;;;;;;5059741;28;20252;-79
2022/08/21 03:14:50;;;;;;;4.73;3.97;;;13.80;99.90;;;;;;5053018;28;20220;-82
2022/08/21 03:17:17;;;;;;;4.13;3.80;;;13.70;99.90;;;;;;5043015;28;20741;-83
2022/08/21 03:19:44;;;;;;;4.50;4.10;;;13.70;99.90;;;;;;5057557;28;20206;-81
2022/08/21 03:22:12;;;;;;;4.20;3.80;;;13.60;99.90;;;;;;5069688;28;20195;-82
2022/08/21 03:24:39;;;;;;;4.33;3.93;;;13.50;99.90;;;;;;5070114;28;20641;-79
2022/08/21 03:27:06;;;;;;;4.13;3.80;;;13.50;99.90;;;;;;5070548;28;20195;-78
2022/08/21 03:29:32;;;;;;;3.97;3.60;;;13.60;99.90;;;;;;5059415;28;20199;-79
2022/08/21 03:31:59;;;;;;;4.47;3.90;;;13.60;99.90;;;;;;5059333;28;20216;-79
2022/08/21 03:34:26;;;;;;;5.90;4.07;;;13.60;99.90;;;;;;5065831;28;20227;-79
2022/08/21 03:36:53;;;;;;;4.40;3.70;;;13.50;99.90;;;;;;5058075;28;20200;-80
2022/08/21 03:39:21;;;;;;;8.27;4.17;;;13.50;99.90;;;;;;5061936;28;20255;-79
2022/08/21 03:41:48;;;;;;;4.37;3.97;;;13.60;99.90;;;;;;5071110;28;20264;-79
2022/08/21 03:44:14;;;;;;;4.30;3.90;;;13.60;99.90;;;;;;5068368;28;20199;-79
2022/08/21 03:46:41;;;;;;;4.80;4.40;;;13.60;99.90;;;;;;5075372;28;20228;-81
2022/08/21 03:49:08;;;;;;;5.33;4.93;;;13.60;99.90;;;;;;5047075;28;20195;-80
2022/08/21 03:51:35;;;;;;;5.53;5.13;;;13.60;99.90;;;;;;5046966;28;20693;-80
2022/08/21 03:54:02;;;;;;;5.37;4.97;;;13.60;99.90;;;;;;5060381;28;20202;-80
2022/08/21 03:56:30;;;;;;;5.87;5.37;;;13.50;99.90;;;;;;5059353;28;20200;-82
2022/08/21 03:58:57;;;;;;;5.40;4.90;;;13.50;99.90;;;;;;5066292;28;20265;-80
2022/08/21 04:01:24;;;;;;;5.70;5.13;;;13.50;99.90;;;;;;5055908;28;20202;-79
2022/08/21 04:03:51;;;;;;;5.37;4.97;;;13.50;99.90;;;;;;5071002;28;20246;-81
2022/08/21 04:06:17;;;;;;;5.30;4.87;;;13.50;99.90;;;;;;5052377;28;20800;-82
2022/08/21 04:08:44;;;;;;;5.37;4.60;;;13.50;99.90;;;;;;5055999;28;20273;-83
2022/08/21 04:11:11;;;;;;;5.00;4.50;;;13.50;99.90;;;;;;5070284;28;20211;-81
2022/08/21 04:13:40;;;;;;;4.87;4.43;;;13.50;99.90;;;;;;5041391;28;20259;-81
2022/08/21 04:16:08;;;;;;;5.33;4.40;;;13.50;99.90;;;;;;5066720;28;20218;-83
2022/08/21 04:18:35;;;;;;;4.40;4.00;;;13.40;99.90;;;;;;5048870;28;20210;-79
2022/08/21 04:21:03;;;;;;;4.20;3.80;;;13.40;99.90;;;;;;5051212;28;20199;-78
2022/08/21 04:23:30;;;;;;;4.20;3.80;;;13.40;99.90;;;;;;5062533;28;20255;-78
2022/08/21 04:25:57;;;;;;;4.20;3.77;;;13.30;99.90;;;;;;5060653;28;20231;-79
2022/08/21 04:28:26;;;;;;;4.60;4.13;;;13.20;99.90;;;;;;5063215;28;20192;-78
2022/08/21 04:30:54;;;;;;;4.57;3.93;;;13.20;99.90;;;;;;5039725;28;20265;-78
2022/08/21 04:33:23;;;;;;;4.43;4.03;;;13.20;99.90;;;;;;5037152;28;20634;-79
2022/08/21 04:35:50;;;;;;;4.43;4.03;;;13.20;99.90;;;;;;5039525;28;20216;-81
2022/08/21 04:38:17;;;;;;;4.43;4.03;;;13.20;99.90;;;;;;5041474;28;20204;-82
2022/08/21 04:40:44;;;;;;;4.47;4.07;;;13.10;99.90;;;;;;5058721;28;20199;-83
2022/08/21 04:43:12;;;;;;;4.50;4.10;;;13.20;99.90;;;;;;5062489;28;20619;-82
2022/08/21 04:45:41;;;;;;;4.97;4.07;;;13.20;99.90;;;;;;5056712;28;20246;-82
2022/08/21 04:48:11;;;;;;;8.80;4.70;;;13.20;99.90;;;;;;5060459;28;20571;-81
2022/08/21 04:50:42;;;;;;;4.83;4.20;;;13.20;99.90;;;;;;5060881;28;20213;-81
2022/08/21 04:53:14;;;;;;;6.70;5.00;;;13.10;99.90;;;;;;5054182;28;20209;-82
2022/08/21 04:55:42;;;;;;;5.40;4.53;;;13.10;99.90;;;;;;5055029;28;20231;-82
2022/08/21 04:58:11;;;;;;;6.93;5.07;;;13.10;99.90;;;;;;5040234;28;20289;-84
2022/08/21 05:00:38;;;;;;;7.27;4.40;;;13.10;99.90;;;;;;5055381;28;20222;-78
2022/08/21 05:03:08;;;;;;;5.40;4.63;;;13.10;99.90;;;;;;5055120;28;20195;-81
2022/08/21 05:05:36;;;;;;;5.00;4.00;;;13.20;99.90;;;;;;5059986;28;20210;-80
2022/08/21 05:08:04;;;;;;;4.80;4.40;;;13.10;99.90;;;;;;5064328;28;20272;-82
2022/08/21 05:10:32;;;;;;;5.13;4.67;;;13.20;99.90;;;;;;5047729;28;20198;-81
2022/08/21 05:13:00;;;;;;;5.33;4.83;;;13.30;99.90;;;;;;5055993;28;20225;-82
2022/08/21 05:15:27;;;;;;;7.23;4.40;;;13.30;99.90;;;;;;5061616;28;20218;-81
2022/08/21 05:17:53;;;;;;;5.30;4.30;;;13.40;99.90;;;;;;5056955;28;20270;-81
2022/08/21 05:20:20;;;;;;;5.90;4.57;;;13.50;99.90;;;;;;5054959;28;20225;-77
2022/08/21 05:22:48;;;;;;;4.73;4.30;;;13.60;99.90;;;;;;5063319;28;20184;-81
2022/08/21 05:25:15;;;;;;;4.90;4.23;;;13.70;99.90;;;;;;5057620;28;20227;-79
2022/08/21 05:27:42;;;;;;;5.83;4.70;;;13.80;99.90;;;;;;5061447;28;20253;-80
2022/08/21 05:30:11;;;;;;;4.90;4.40;;;13.90;99.90;;;;;;5058334;28;20199;-80
2022/08/21 05:32:37;;;;;;;4.63;4.23;;;14.00;99.90;;;;;;5064571;28;20219;-80
2022/08/21 05:35:06;;;;;;;5.73;4.10;;;14.20;99.90;;;;;;5060823;28;20250;-82
2022/08/21 05:37:34;;;;;;;10.33;9.63;;;14.30;99.90;;;;;;5056855;28;20204;-80
2022/08/21 05:40:04;;;;;;;6.00;5.50;;;14.50;99.90;;;;;;5059666;28;20249;-80
2022/08/21 05:42:31;;;;;;;5.70;5.20;;;14.60;99.90;;;;;;5057661;28;20188;-81
2022/08/21 05:44:58;;;;;;;6.80;6.20;;;14.80;99.90;;;;;;5061439;28;20277;-81
2022/08/21 05:47:24;;;;;;;7.87;7.27;;;15.00;99.90;;;;;;5055992;28;20208;-80
2022/08/21 05:49:51;;;;;;;7.37;6.80;;;15.10;99.90;;;;;;5057001;28;20755;-81
2022/08/21 05:52:20;;;;;;;6.87;6.37;;;15.30;99.90;;;;;;5066881;28;20204;-80
2022/08/21 05:54:47;;;;;;;11.93;11.10;;;15.40;99.90;;;;;;5060417;28;20286;-80
2022/08/21 05:57:15;;;;;;;11.20;10.50;;;15.50;99.90;;;;;;5055112;28;20206;-80
2022/08/21 05:59:42;;;;;;;11.90;11.10;;;15.60;99.90;;;;;;5051822;28;20198;-80
2022/08/21 06:02:09;;;;;;;11.60;10.90;;;15.70;99.90;;;;;;5063549;28;20587;-80
2022/08/21 06:04:37;;;;;;;11.20;10.50;;;15.80;99.90;;;;;;5056726;28;20221;-80
2022/08/21 06:07:04;;;;;;;10.80;10.20;;;15.90;99.90;;;;;;5056199;28;20239;-80
2022/08/21 06:09:31;;;;;;;11.10;10.40;;;15.90;99.90;;;;;;5051891;28;20610;-80
2022/08/21 06:11:57;;;;;;;11.60;10.83;;;16.00;99.90;;;;;;5058852;28;20263;-80
2022/08/21 06:14:26;;;;;;;11.00;10.30;;;16.10;99.90;;;;;;5056877;28;20223;-80
2022/08/21 06:16:52;;;;;;;11.27;10.57;;;16.10;99.90;;;;;;5055721;28;20674;-80
2022/08/21 06:19:19;;;;;;;10.27;9.60;;;16.10;99.90;;;;;;5059709;28;20199;-80
2022/08/21 06:21:46;;;;;;;5.57;4.30;;;16.20;99.90;;;;;;5057964;28;20261;-80
2022/08/21 06:24:13;;;;;;;3.73;3.53;;;16.30;99.90;;;;;;5055912;28;20737;-80
2022/08/21 06:26:40;;;;;;;9.10;8.43;;;16.40;99.90;;;;;;5054613;28;20209;-80
2022/08/21 06:29:10;;;;;;;8.83;8.27;;;16.50;99.90;;;;;;5057005;28;20224;-80
2022/08/21 06:31:40;;;;;;;11.50;10.80;;;16.70;99.90;;;;;;5059397;28;20206;-80
2022/08/21 06:34:07;;;;;;;8.27;7.77;;;16.80;99.90;;;;;;5052837;28;20282;-80
2022/08/21 06:36:34;;;;;;;7.47;6.97;;;16.90;99.90;;;;;;5054881;28;20262;-80
2022/08/21 06:39:01;;;;;;;10.27;9.57;;;17.00;99.90;;;;;;5061399;28;20281;-81
2022/08/21 06:41:28;;;;;;;4.53;3.90;;;17.10;99.90;;;;;;5056576;28;20573;-81
2022/08/21 06:43:56;;;;;;;6.53;3.60;;;17.20;99.90;;;;;;5053091;28;20235;-80
2022/08/21 06:46:23;;;;;;;8.17;7.53;;;17.30;99.90;;;;;;5051194;28;20218;-81
2022/08/21 06:48:51;;;;;;;4.23;3.93;;;17.30;99.90;;;;;;5060190;28;20202;-80
2022/08/21 06:51:18;;;;;;;10.20;9.60;;;17.40;99.90;;;;;;5057032;28;20197;-80
2022/08/21 06:53:46;;;;;;;4.03;3.63;;;17.50;99.90;;;;;;5055378;28;20673;-80
2022/08/21 06:56:13;;;;;;;6.27;5.87;;;17.60;99.90;;;;;;5061265;28;20222;-80
2022/08/21 06:58:40;;;;;;;4.00;3.70;;;17.60;99.90;;;;;;5060225;28;20199;-81
2022/08/21 07:01:06;;;;;;;3.90;3.50;;;17.70;99.90;;;;;;5056420;28;20199;-80
2022/08/21 07:03:36;;;;;;;10.00;9.30;;;17.70;99.90;;;;;;5062133;28;20631;-80
2022/08/21 07:06:05;;;;;;;10.47;9.67;;;17.80;99.90;;;;;;5065372;28;20214;-81
2022/08/21 07:08:32;;;;;;;10.33;9.63;;;17.90;99.90;;;;;;5061491;28;20257;-80
2022/08/21 07:11:03;;;;;;;10.23;9.60;;;17.90;99.90;;;;;;5061548;28;20196;-80
2022/08/21 07:13:30;;;;;;;4.07;3.70;;;18.00;99.90;;;;;;5057799;28;20212;-81
2022/08/21 07:15:57;;;;;;;3.60;3.30;;;18.10;99.90;;;;;;5064110;28;20637;-80
2022/08/21 07:18:23;;;;;;;3.77;3.43;;;18.20;99.90;;;;;;5061973;28;20215;-80
2022/08/21 07:20:51;;;;;;;6.00;5.60;;;18.40;99.90;;;;;;5063103;28;20203;-81
2022/08/21 07:23:22;;;;;;;10.97;10.20;;;18.50;99.90;;;;;;5055742;28;20209;-81
2022/08/21 07:25:49;;;;;;;9.83;9.13;;;18.60;99.90;;;;;;5051697;28;20224;-81
2022/08/21 07:28:16;;;;;;;11.37;10.60;;;18.90;99.90;;;;;;5058777;28;20210;-81
2022/08/21 07:30:43;;;;;;;10.20;9.40;;;19.40;99.90;;;;;;5057368;28;20207;-81
2022/08/21 07:33:10;;;;;;;9.40;8.80;;;20.00;99.90;;;;;;5056810;28;20215;-79
2022/08/21 07:35:37;;;;;;;10.30;9.40;;;20.50;99.90;;;;;;5059456;28;20223;-82
2022/08/21 07:38:04;;;;;;;9.77;9.07;;;21.10;99.90;;;;;;5060668;28;20290;-81
2022/08/21 07:40:32;;;;;;;10.40;8.33;;;21.60;99.90;;;;;;5058142;28;20209;-81
2022/08/21 07:42:59;;;;;;;8.77;8.17;;;21.90;99.90;;;;;;5054350;28;20192;-81
2022/08/21 07:45:26;;;;;;;8.80;8.00;;;22.50;99.90;;;;;;5064498;28;20363;-82
2022/08/21 07:47:53;;;;;;;8.83;8.10;;;22.90;99.90;;;;;;5069436;28;20203;-81
2022/08/21 07:50:20;;;;;;;9.40;8.60;;;23.40;99.90;;;;;;5064905;28;20244;-81
2022/08/21 07:52:47;;;;;;;5.13;4.63;;;23.70;99.90;;;;;;5062398;28;20215;-82
2022/08/21 07:55:16;;;;;;;8.23;7.63;;;24.00;99.90;;;;;;5059621;28;20227;-81
2022/08/21 07:57:46;;;;;;;6.87;6.20;;;24.20;99.90;;;;;;5058386;28;20205;-81
2022/08/21 08:00:16;;;;;;;5.97;5.50;;;24.30;99.90;;;;;;5060219;28;20198;-81
2022/08/21 08:02:46;;;;;;;6.17;5.07;;;24.70;99.90;;;;;;5051219;28;20203;-82
2022/08/21 08:05:13;;;;;;;5.93;4.50;;;24.80;99.90;;;;;;5059653;28;20222;-81
2022/08/21 08:07:40;;;;;;;4.30;3.90;;;24.60;99.90;;;;;;5058264;28;20200;-81
2022/08/21 08:10:09;;;;;;;4.37;3.73;;;24.80;99.90;;;;;;5064649;28;20195;-79
2022/08/21 08:12:36;;;;;;;4.67;4.03;;;24.90;99.90;;;;;;5058813;28;20242;-82
2022/08/21 08:15:07;;;;;;;4.50;3.77;;;25.00;99.90;;;;;;5057602;28;20271;-81
2022/08/21 08:17:34;;;;;;;3.57;3.27;;;25.30;99.90;;;;;;5054795;28;20210;-81
2022/08/21 08:20:02;;;;;;;4.00;3.57;;;25.40;99.90;;;;;;5065796;28;20316;-81
2022/08/21 08:22:29;;;;;;;4.57;3.40;;;25.70;99.90;;;;;;5060377;28;20203;-81
2022/08/21 08:24:56;;;;;;;4.37;3.57;;;25.60;99.90;;;;;;5058397;28;20243;-81
2022/08/21 08:27:23;;;;;;;4.90;3.63;;;25.70;99.90;;;;;;5059987;28;20200;-81
2022/08/21 08:29:51;;;;;;;4.90;3.83;;;25.80;99.90;;;;;;5060826;28;20195;-81
2022/08/21 08:32:19;;;;;;;6.30;5.80;;;25.80;99.90;;;;;;5056714;28;20245;-81
2022/08/21 08:34:48;;;;;;;6.60;4.40;;;25.90;99.90;;;;;;5058423;28;20227;-81
2022/08/21 08:37:16;;;;;;;7.20;4.43;;;26.40;99.90;;;;;;5052399;28;20210;-81
2022/08/21 08:39:43;;;;;;;6.47;3.87;;;26.60;99.90;;;;;;5062342;28;20226;-82
2022/08/21 08:42:14;;;;;;;7.60;5.80;;;26.90;99.90;;;;;;5061736;28;20198;-81
2022/08/21 08:44:42;;;;;;;6.30;4.00;;;26.90;99.90;;;;;;5062631;28;20290;-81
2022/08/21 08:47:10;;;;;;;5.17;4.00;;;26.50;99.90;;;;;;5059300;28;20191;-81
2022/08/21 08:49:49;;;;;;;5.87;4.20;;;26.70;99.90;;;;;;5060791;28;20273;-81
2022/08/21 08:52:21;;;;;;;6.83;6.23;;;26.80;99.90;;;;;;5046237;28;20647;-81
2022/08/21 08:54:53;;;;;;;6.33;5.57;;;27.30;99.90;;;;;;5067762;28;20214;-82
2022/08/21 08:57:23;;;;;;;9.27;6.30;;;27.30;99.90;;;;;;5059027;28;20264;-81
2022/08/21 08:59:53;;;;;;;8.07;6.60;;;27.40;99.90;;;;;;5056000;28;20334;-81
2022/08/21 09:02:20;;;;;;;6.60;6.00;;;27.00;99.90;;;;;;5058663;28;20210;-81
2022/08/21 09:04:50;;;;;;;6.43;5.73;;;27.20;99.90;;;;;;5059632;28;20225;-81
2022/08/21 09:07:24;;;;;;;7.60;6.27;;;27.40;99.90;;;;;;5057903;28;20603;-82
2022/08/21 09:10:07;;;;;;;8.10;4.00;;;27.60;99.90;;;;;;5055225;28;20630;-81
2022/08/21 09:12:53;;;;;;;6.57;3.83;;;27.50;99.90;;;;;;5054515;28;20218;-82
2022/08/21 09:15:28;;;;;;;7.23;6.20;;;27.60;99.90;;;;;;5054385;28;20716;-81
2022/08/21 09:18:14;;;;;;;6.23;4.83;;;27.60;99.90;;;;;;5059393;28;20202;-81
2022/08/21 09:21:01;;;;;;;5.03;3.80;;;27.80;99.90;;;;;;5055813;28;20289;-81
2022/08/21 09:23:38;;;;;;;5.20;3.70;;;27.50;99.90;;;;;;5048699;28;20247;-81
2022/08/21 09:26:12;;;;;;;6.77;4.13;;;27.30;99.90;;;;;;5048779;28;20214;-81
2022/08/21 09:28:40;;;;;;;4.53;3.67;;;27.70;99.90;;;;;;5062439;28;20277;-81
2022/08/21 09:31:12;;;;;;;4.73;3.60;;;28.00;99.90;;;;;;5055586;28;20544;-83
2022/08/21 09:33:39;;;;;;;6.57;4.90;;;28.10;99.90;;;;;;5046026;28;20207;-85
2022/08/21 09:36:07;;;;;;;6.67;4.37;;;28.10;99.90;;;;;;5061281;28;20296;-81
2022/08/21 09:38:37;;;;;;;4.90;4.40;;;28.20;99.90;;;;;;5058931;28;20211;-85
2022/08/21 09:41:08;;;;;;;8.37;5.17;;;28.60;99.90;;;;;;5054332;28;20226;-83
2022/08/21 09:43:35;;;;;;;5.83;4.47;;;28.30;98.80;;;;;;5048306;28;20263;-83
2022/08/21 09:46:09;;;;;;;8.00;7.27;;;28.00;98.40;;;;;;5052960;28;20234;-85
2022/08/21 09:48:45;;;;;;;5.97;4.63;;;28.00;99.50;;;;;;5061366;28;20233;-84
2022/08/21 09:51:17;;;;;;;5.33;4.63;;;27.80;99.90;;;;;;5051386;28;20205;-84
2022/08/21 09:53:48;;;;;;;6.90;5.87;;;28.20;99.90;;;;;;5062868;28;20280;-84
2022/08/21 09:59:15;;;;;;;7.10;4.33;;;28.40;97.40;;;;;;5038727;28;20210;-83
2022/08/21 10:01:45;;;;;;;8.23;7.50;;;28.40;98.00;;;;;;5052585;28;20191;-83
2022/08/21 10:04:12;;;;;;;5.87;5.20;;;28.20;95.90;;;;;;5043140;28;20191;-83
2022/08/21 10:06:41;;;;;;;8.40;7.43;;;28.20;97.50;;;;;;5055231;28;20211;-84
2022/08/21 10:09:10;;;;;;;8.70;7.50;;;28.20;97.20;;;;;;5065431;28;20201;-83
2022/08/21 10:11:38;;;;;;;9.20;8.23;;;27.60;95.60;;;;;;5059645;28;20230;-84
2022/08/21 10:14:14;;;;;;;7.40;6.70;;;27.60;97.40;;;;;;5063656;28;20215;-80
2022/08/21 10:16:53;;;;;;;6.50;5.90;;;27.80;98.70;;;;;;5050519;28;20567;-80
2022/08/21 10:19:27;;;;;;;6.20;5.20;;;27.80;97.10;;;;;;5054970;28;20194;-81
2022/08/21 10:22:03;;;;;;;8.07;5.17;;;27.50;97.60;;;;;;5056004;28;20195;-84
2022/08/21 10:24:34;;;;;;;5.67;4.27;;;27.20;97.70;;;;;;5057084;28;20222;-80
2022/08/21 10:27:13;;;;;;;4.70;3.40;;;27.20;98.90;;;;;;5059392;28;20219;-81
2022/08/21 10:29:47;;;;;;;5.73;3.73;;;27.30;98.60;;;;;;5059805;28;20202;-79
2022/08/21 10:32:36;;;;;;;5.90;4.10;;;27.40;98.70;;;;;;5047738;28;20206;-81
2022/08/21 10:35:13;;;;;;;7.00;4.40;;;27.30;99.40;;;;;;5058148;28;20767;-88
2022/08/21 10:37:49;;;;;;;4.80;4.30;;;27.00;98.50;;;;;;5050449;28;20198;-81
2022/08/21 10:40:24;;;;;;;7.43;4.40;;;26.90;98.60;;;;;;5053302;28;20208;-79
2022/08/21 10:43:03;;;;;;;4.97;4.47;;;26.90;99.60;;;;;;5052462;28;20190;-81
2022/08/21 10:45:43;;;;;;;4.77;4.00;;;26.70;99.40;;;;;;5059897;28;20226;-81
2022/08/21 10:48:22;;;;;;;6.03;3.80;;;26.80;99.60;;;;;;5044979;28;20266;-80
2022/08/21 10:50:56;;;;;;;5.10;4.10;;;26.80;99.90;;;;;;5053371;28;20206;-82
2022/08/21 10:53:52;;;;;;;6.20;4.40;;;26.60;99.40;;;;;;5053455;28;20215;-82
2022/08/21 10:56:23;;;;;;;4.43;4.03;;;26.20;98.70;;;;;;5039175;28;20580;-80
2022/08/21 10:59:20;;;;;;;6.10;4.23;;;26.10;99.30;;;;;;5045189;28;20195;-79
2022/08/21 11:01:51;;;;;;;6.23;4.20;;;25.80;97.40;;;;;;5038801;28;20604;-82
2022/08/21 11:04:22;;;;;;;5.00;3.50;;;25.50;97.70;;;;;;5047437;28;20261;-79
2022/08/21 11:07:01;;;;;;;4.97;3.50;;;25.40;98.50;;;;;;5041007;28;20262;-79
2022/08/21 11:09:29;;;;;;;4.03;3.63;;;25.70;99.00;;;;;;5057059;28;20206;-79
2022/08/21 11:12:02;;;;;;;4.00;3.60;;;25.60;97.70;;;;;;5057588;28;20209;-81
2022/08/21 11:14:39;;;;;;;4.93;3.33;;;25.70;98.50;;;;;;5061171;28;20283;-79
2022/08/21 11:17:10;;;;;;;3.57;3.00;;;25.70;98.60;;;;;;5057318;28;20264;-79
2022/08/21 11:19:43;;;;;;;3.97;3.57;;;25.90;98.40;;;;;;5047893;28;20252;-80
2022/08/21 11:22:16;;;;;;;5.60;3.03;;;25.90;98.30;;;;;;5052783;28;20245;-81
2022/08/21 11:24:49;;;;;;;5.27;3.47;;;25.80;98.20;;;;;;5062761;28;20623;-78
2022/08/21 11:27:23;;;;;;;4.47;3.60;;;25.30;96.80;;;;;;5044996;28;20721;-81
2022/08/21 11:29:55;;;;;;;5.97;3.73;;;25.20;97.90;;;;;;5066669;28;20191;-81
2022/08/21 11:32:40;;;;;;;3.63;3.30;;;25.30;97.90;;;;;;5055763;28;20200;-81
2022/08/21 11:35:15;;;;;;;3.93;3.60;;;25.20;98.50;;;;;;5055761;28;20710;-81
2022/08/21 11:37:55;;;;;;;4.33;3.93;;;25.50;99.40;;;;;;5060881;28;20198;-84
2022/08/21 11:40:38;;;;;;;5.67;4.07;;;25.60;97.90;;;;;;5038593;28;20207;-82
2022/08/21 11:43:14;;;;;;;4.30;3.90;;;25.60;97.70;;;;;;5063215;28;20344;-81
2022/08/21 11:45:47;;;;;;;5.00;4.50;;;25.60;98.10;;;;;;5066699;28;20229;-82
2022/08/21 11:48:32;;;;;;;5.30;4.90;;;25.50;98.00;;;;;;5062652;28;20197;-81
2022/08/21 11:51:01;;;;;;;5.47;5.07;;;25.40;97.20;;;;;;5070150;28;20191;-81
2022/08/21 11:53:35;;;;;;;6.07;5.47;;;25.50;98.60;;;;;;5040059;28;20215;-81
2022/08/21 11:56:10;;;;;;;5.47;5.07;;;25.40;97.50;;;;;;5071950;28;20210;-83
2022/08/21 11:58:40;;;;;;;7.03;5.07;;;25.50;98.60;;;;;;5064798;28;20226;-83
2022/08/21 12:01:10;;;;;;;4.90;4.20;;;25.40;98.00;;;;;;5061043;28;20234;-79
2022/08/21 12:03:40;;;;;;;5.37;4.70;;;25.40;97.30;;;;;;5058128;28;20244;-79
2022/08/21 12:06:09;;;;;;;4.80;4.33;;;25.30;97.50;;;;;;5061976;28;20301;-79
2022/08/21 12:08:38;;;;;;;4.80;4.10;;;25.30;97.20;;;;;;5061817;28;20210;-79
2022/08/21 12:11:08;;;;;;;6.57;4.70;;;25.20;97.00;;;;;;5055679;28;20202;-78
2022/08/21 12:13:38;;;;;;;5.13;4.67;;;25.10;97.30;;;;;;5062712;28;20665;-80
2022/08/21 12:16:11;;;;;;;5.33;4.83;;;25.10;97.90;;;;;;5056542;28;20241;-79
2022/08/21 12:18:38;;;;;;;6.67;5.30;;;25.10;97.90;;;;;;5062385;28;20852;-79
2022/08/21 12:21:20;;;;;;;4.90;4.50;;;25.10;98.00;;;;;;5057398;28;20199;-80
2022/08/21 12:23:49;;;;;;;5.67;5.07;;;25.20;97.80;;;;;;5063031;28;20248;-79
2022/08/21 12:26:28;;;;;;;5.63;4.60;;;25.20;97.10;;;;;;5056542;28;20210;-79
2022/08/21 12:29:22;;;;;;;8.67;5.90;;;25.10;97.00;;;;;;5068803;28;20206;-79
2022/08/21 12:31:56;;;;;;;7.27;5.00;;;25.10;98.30;;;;;;5068742;28;20207;-80
2022/08/21 12:34:27;;;;;;;7.63;5.10;;;25.10;98.40;;;;;;5069012;28;20287;-79
2022/08/21 12:36:59;;;;;;;6.20;4.93;;;25.10;97.60;;;;;;5039075;28;20691;-79
2022/08/21 12:39:28;;;;;;;5.77;4.67;;;24.90;97.40;;;;;;5051573;28;20194;-79
2022/08/21 12:42:01;;;;;;;5.37;4.87;;;24.90;98.50;;;;;;5064766;28;20255;-81
2022/08/21 12:44:36;;;;;;;5.73;4.80;;;25.10;98.90;;;;;;5050913;28;20219;-80
2022/08/21 12:47:06;;;;;;;5.23;4.73;;;25.10;97.80;;;;;;5059289;28;20208;-79
2022/08/21 12:49:37;;;;;;;4.90;4.40;;;25.20;98.30;;;;;;5057252;28;20667;-81
2022/08/21 12:52:13;;;;;;;6.00;5.40;;;25.20;97.50;;;;;;5061497;28;20198;-78
2022/08/21 12:54:42;;;;;;;5.80;5.30;;;25.20;98.00;;;;;;5065098;28;20222;-80
2022/08/21 12:57:21;;;;;;;6.43;4.93;;;25.20;97.90;;;;;;5062217;28;20248;-80
2022/08/21 12:59:53;;;;;;;5.87;5.27;;;25.20;97.80;;;;;;5046090;28;20330;-79
2022/08/21 13:02:24;;;;;;;5.47;4.97;;;25.30;98.30;;;;;;5033373;28;20204;-79